createdAt,value
2018-10-04T00:01:04.056Z,9.30
2018-10-04T00:03:34.388Z,9.34
2018-10-04T00:06:03.105Z,9.38
2018-10-04T00:08:32.151Z,9.40
2018-10-04T00:11:02.150Z,9.43
2018-10-04T00:13:31.904Z,9.45
2018-10-04T00:16:02.011Z,9.46
2018-10-04T00:18:32.992Z,9.51
2018-10-04T00:21:04.397Z,9.52
2018-10-04T00:23:34.844Z,9.51
2018-10-04T00:26:04.791Z,9.56
2018-10-04T00:28:35.299Z,9.56
2018-10-04T00:31:05.165Z,9.58
2018-10-04T00:33:35.897Z,9.57
2018-10-04T00:36:05.766Z,9.55
2018-10-04T00:38:36.132Z,9.56
2018-10-04T00:41:07.065Z,9.58
2018-10-04T00:43:38.550Z,9.54
2018-10-04T00:46:10.478Z,9.57
2018-10-04T00:48:41.083Z,9.55
2018-10-04T00:51:12.206Z,9.54
2018-10-04T00:53:43.355Z,9.55
2018-10-04T00:56:14.022Z,9.51
2018-10-04T00:58:46.209Z,9.52
2018-10-04T01:01:17.946Z,9.55
2018-10-04T01:03:49.165Z,9.53
2018-10-04T01:06:19.313Z,9.51
2018-10-04T01:08:49.929Z,9.56
2018-10-04T01:11:20.116Z,9.58
2018-10-04T01:13:50.305Z,9.56
2018-10-04T01:16:20.709Z,9.52
2018-10-04T01:18:59.977Z,9.46
2018-10-04T01:21:31.682Z,9.51
2018-10-04T01:24:02.048Z,9.51
2018-10-04T01:26:33.015Z,9.48
2018-10-04T01:29:03.328Z,9.47
2018-10-04T01:31:33.828Z,9.47
2018-10-04T01:34:03.843Z,9.46
2018-10-04T01:36:34.123Z,9.45
2018-10-04T01:39:05.142Z,9.43
2018-10-04T01:41:34.825Z,9.41
2018-10-04T01:44:04.988Z,9.40
2018-10-04T01:46:35.221Z,9.41
2018-10-04T01:49:05.156Z,9.40
2018-10-04T01:51:34.484Z,9.38
2018-10-04T01:54:05.255Z,9.40
2018-10-04T01:56:35.011Z,9.40
2018-10-04T01:59:04.866Z,9.41
2018-10-04T02:01:34.616Z,9.40
2018-10-04T02:04:04.349Z,9.42
2018-10-04T02:06:34.089Z,9.41
2018-10-04T02:09:03.791Z,9.39
2018-10-04T02:11:33.994Z,9.40
2018-10-04T02:14:04.641Z,9.44
2018-10-04T02:16:34.504Z,9.48
2018-10-04T02:19:05.197Z,9.44
2018-10-04T02:21:35.247Z,9.45
2018-10-04T02:24:05.559Z,9.40
2018-10-04T02:26:36.405Z,9.39
2018-10-04T02:29:07.790Z,9.42
2018-10-04T02:31:38.511Z,9.41
2018-10-04T02:34:08.519Z,9.43
2018-10-04T02:36:38.524Z,9.43
2018-10-04T02:39:09.147Z,9.41
2018-10-04T02:41:39.911Z,9.44
2018-10-04T02:44:10.014Z,9.44
2018-10-04T02:46:39.925Z,9.42
2018-10-04T02:49:10.473Z,9.48
2018-10-04T02:51:40.800Z,9.44
2018-10-04T02:54:14.993Z,9.38
2018-10-04T02:56:49.902Z,9.39
2018-10-04T02:59:19.883Z,9.35
2018-10-04T03:01:50.284Z,9.39
2018-10-04T03:04:20.581Z,9.36
2018-10-04T03:06:50.823Z,9.38
2018-10-04T03:09:21.240Z,9.29
2018-10-04T03:11:51.288Z,9.27
2018-10-04T03:14:21.398Z,9.27
2018-10-04T03:16:51.607Z,9.31
2018-10-04T03:19:21.564Z,9.32
2018-10-04T03:21:51.608Z,9.30
2018-10-04T03:24:21.536Z,9.33
2018-10-04T03:26:51.509Z,9.35
2018-10-04T03:29:21.468Z,9.31
2018-10-04T03:31:52.648Z,9.30
2018-10-04T03:34:22.783Z,9.28
2018-10-04T03:36:52.679Z,9.24
2018-10-04T03:39:22.071Z,9.27
2018-10-04T03:41:52.258Z,9.24
2018-10-04T03:44:23.450Z,9.23
2018-10-04T03:46:55.889Z,9.25
2018-10-04T03:49:27.094Z,9.25
2018-10-04T03:51:57.082Z,9.26
2018-10-04T03:54:28.066Z,9.22
2018-10-04T03:57:00.006Z,9.22
2018-10-04T03:59:30.897Z,9.13
2018-10-04T04:02:02.059Z,9.13
2018-10-04T04:04:32.680Z,9.09
2018-10-04T04:07:04.108Z,9.11
2018-10-04T04:09:35.194Z,9.08
2018-10-04T04:12:05.056Z,9.04
2018-10-04T04:14:36.665Z,9.09
2018-10-04T04:17:06.348Z,9.09
2018-10-04T04:19:37.336Z,9.11
2018-10-04T04:22:07.135Z,9.10
2018-10-04T04:24:37.344Z,9.06
2018-10-04T04:27:07.136Z,9.04
2018-10-04T04:29:37.401Z,8.99
2018-10-04T04:32:07.888Z,8.99
2018-10-04T04:34:37.688Z,8.93
2018-10-04T04:37:07.197Z,8.95
2018-10-04T04:39:37.916Z,8.96
2018-10-04T04:42:07.329Z,8.93
2018-10-04T04:44:37.052Z,8.93
2018-10-04T04:47:07.163Z,8.87
2018-10-04T04:49:39.907Z,8.88
2018-10-04T04:52:10.416Z,8.87
2018-10-04T04:55:44.304Z,8.83
2018-10-04T04:58:15.358Z,8.82
2018-10-04T05:00:46.632Z,8.84
2018-10-04T05:03:16.657Z,8.79
2018-10-04T05:05:46.831Z,8.79
2018-10-04T05:08:16.744Z,8.83
2018-10-04T05:10:47.096Z,8.85
2018-10-04T05:13:18.093Z,8.83
2018-10-04T05:15:48.120Z,8.77
2018-10-04T05:18:19.305Z,8.78
2018-10-04T05:20:49.213Z,8.84
2018-10-04T05:23:19.222Z,8.87
2018-10-04T05:25:49.227Z,8.93
2018-10-04T05:28:20.947Z,8.95
2018-10-04T05:30:51.088Z,8.98
2018-10-04T05:33:21.112Z,9.03
2018-10-04T05:35:51.389Z,9.07
2018-10-04T05:38:21.408Z,9.12
2018-10-04T05:40:51.431Z,9.12
2018-10-04T05:43:21.460Z,9.19
2018-10-04T05:45:52.564Z,9.24
2018-10-04T05:48:22.315Z,9.25
2018-10-04T05:50:52.336Z,9.31
2018-10-04T05:53:22.773Z,9.34
2018-10-04T05:55:52.744Z,9.39
2018-10-04T05:58:22.802Z,9.42
2018-10-04T06:00:52.833Z,9.45
2018-10-04T06:03:22.945Z,9.49
2018-10-04T06:05:52.996Z,9.53
2018-10-04T06:08:23.108Z,9.60
2018-10-04T06:10:53.333Z,9.61
2018-10-04T06:13:23.165Z,9.64
2018-10-04T06:15:52.965Z,9.70
2018-10-04T06:18:23.030Z,9.73
2018-10-04T06:20:52.948Z,9.77
2018-10-04T06:23:23.089Z,9.76
2018-10-04T06:25:53.100Z,9.80
2018-10-04T06:28:23.151Z,9.86
2018-10-04T06:30:53.098Z,9.91
2018-10-04T06:33:22.890Z,9.98
2018-10-04T06:35:52.744Z,10.05
2018-10-04T06:45:25.088Z,10.50
2018-10-04T06:47:54.942Z,10.61
2018-10-04T06:50:24.951Z,10.71
2018-10-04T06:52:54.923Z,10.83
2018-10-04T06:55:24.809Z,10.91
2018-10-04T06:57:54.833Z,11.06
2018-10-04T07:00:24.587Z,10.97
2018-10-04T07:02:55.384Z,11.14
2018-10-04T07:05:25.321Z,11.31
2018-10-04T07:07:55.329Z,11.46
2018-10-04T07:10:25.057Z,11.48
2018-10-04T07:12:54.884Z,11.70
2018-10-04T07:15:26.148Z,11.48
2018-10-04T07:17:56.131Z,11.60
2018-10-04T07:20:26.205Z,11.92
2018-10-04T07:22:56.334Z,11.93
2018-10-04T07:25:26.218Z,12.12
2018-10-04T07:27:56.205Z,12.22
2018-10-04T07:30:29.787Z,12.47
2018-10-04T07:33:01.502Z,12.76
2018-10-04T07:35:32.542Z,13.18
2018-10-04T07:38:03.673Z,13.40
2018-10-04T07:40:34.605Z,13.73
2018-10-04T07:43:07.301Z,13.75
2018-10-04T07:45:36.394Z,13.69
2018-10-04T07:48:07.121Z,14.02
2018-10-04T07:50:37.675Z,14.17
2018-10-04T07:53:07.914Z,14.01
2018-10-04T07:55:37.928Z,13.75
2018-10-04T07:58:08.531Z,13.91
2018-10-04T08:00:38.362Z,14.08
2018-10-04T08:03:08.617Z,14.03
2018-10-04T08:05:39.250Z,14.43
2018-10-04T08:08:09.819Z,14.47
2018-10-04T08:10:40.864Z,14.26
2018-10-04T08:13:10.810Z,14.53
2018-10-04T08:15:40.963Z,14.81
2018-10-04T08:18:11.042Z,15.21
2018-10-04T08:20:42.107Z,15.09
2018-10-04T08:23:13.339Z,15.19
2018-10-04T08:25:43.527Z,15.14
2018-10-04T08:28:14.160Z,15.36
2018-10-04T08:30:44.207Z,14.98
2018-10-04T08:33:13.366Z,14.90
2018-10-04T08:35:44.017Z,14.55
2018-10-04T08:38:13.698Z,14.71
2018-10-04T08:40:43.690Z,14.47
2018-10-04T08:43:13.701Z,14.49
2018-10-04T08:45:43.789Z,14.35
2018-10-04T08:48:13.783Z,14.24
2018-10-04T08:50:43.967Z,14.50
2018-10-04T08:53:13.815Z,14.47
2018-10-04T08:55:43.842Z,14.95
2018-10-04T08:58:12.935Z,14.86
2018-10-04T09:00:42.732Z,15.03
2018-10-04T09:03:12.960Z,14.89
2018-10-04T09:05:42.558Z,14.88
2018-10-04T09:08:12.208Z,14.70
2018-10-04T09:10:42.079Z,14.71
2018-10-04T09:13:11.913Z,14.48
2018-10-04T09:15:41.781Z,14.59
2018-10-04T09:18:11.428Z,14.64
2018-10-04T09:20:41.107Z,14.50
2018-10-04T09:23:11.009Z,14.48
2018-10-04T09:25:41.044Z,14.50
2018-10-04T09:28:16.827Z,14.55
2018-10-04T09:30:51.650Z,14.59
2018-10-04T09:33:21.581Z,14.65
2018-10-04T09:35:49.920Z,14.74
2018-10-04T09:38:19.952Z,14.61
2018-10-04T09:40:48.965Z,14.54
2018-10-04T09:43:17.309Z,14.70
2018-10-04T09:45:45.655Z,14.71
2018-10-04T09:48:14.009Z,14.65
2018-10-04T09:50:42.417Z,14.32
2018-10-04T09:53:11.775Z,14.46
2018-10-04T09:55:45.453Z,14.67
2018-10-04T09:58:14.418Z,14.53
2018-10-04T10:00:48.257Z,14.26
2018-10-04T10:03:16.636Z,14.26
2018-10-04T10:05:45.014Z,14.24
2018-10-04T10:08:13.394Z,14.04
2018-10-04T10:10:41.777Z,14.21
2018-10-04T10:13:10.150Z,14.21
2018-10-04T10:15:38.501Z,14.12
2018-10-04T10:18:06.929Z,14.24
2018-10-04T10:21:59.669Z,14.02
2018-10-04T10:24:27.994Z,14.17
2018-10-04T10:26:56.349Z,14.39
2018-10-04T10:29:24.716Z,14.51
2018-10-04T10:31:53.084Z,14.51
2018-10-04T10:34:21.465Z,14.58
2018-10-04T10:36:50.070Z,14.80
2018-10-04T10:39:18.422Z,14.75
2018-10-04T10:41:46.768Z,14.66
2018-10-04T10:44:15.139Z,14.50
2018-10-04T10:46:43.447Z,14.50
2018-10-04T10:49:11.789Z,14.27
2018-10-04T10:51:40.140Z,14.42
2018-10-04T10:54:08.829Z,14.32
2018-10-04T10:56:37.158Z,14.28
2018-10-04T10:59:05.498Z,14.22
2018-10-04T11:01:33.856Z,14.27
2018-10-04T11:04:02.212Z,14.23
2018-10-04T11:06:30.556Z,14.31
2018-10-04T11:08:58.895Z,14.23
2018-10-04T11:11:27.265Z,14.22
2018-10-04T11:13:55.588Z,14.26
2018-10-04T11:16:23.946Z,14.06
2018-10-04T11:18:52.281Z,14.08
2018-10-04T11:21:20.637Z,14.13
2018-10-04T11:23:48.976Z,14.04
2018-10-04T11:26:17.346Z,14.04
2018-10-04T11:28:45.694Z,14.03
2018-10-04T11:31:14.023Z,14.16
2018-10-04T11:33:42.485Z,14.14
2018-10-04T11:36:10.872Z,14.24
2018-10-04T11:38:39.237Z,14.38
2018-10-04T11:41:07.574Z,14.54
2018-10-04T11:43:35.907Z,14.75
2018-10-04T11:46:05.116Z,15.03
2018-10-04T11:48:35.217Z,15.21
2018-10-04T11:51:03.588Z,15.48
2018-10-04T11:53:31.921Z,15.49
2018-10-04T11:56:00.251Z,15.40
2018-10-04T11:58:28.601Z,15.59
2018-10-04T12:00:56.952Z,15.60
2018-10-04T12:03:25.281Z,15.37
2018-10-04T12:05:53.605Z,15.42
2018-10-04T12:08:22.002Z,15.31
2018-10-04T12:10:50.330Z,15.40
2018-10-04T12:14:47.884Z,15.51
2018-10-04T12:17:16.211Z,15.50
2018-10-04T12:19:44.563Z,15.56
2018-10-04T12:22:12.947Z,15.59
2018-10-04T12:24:41.397Z,15.66
2018-10-04T12:27:09.782Z,15.74
2018-10-04T12:29:38.129Z,15.74
2018-10-04T12:32:06.484Z,15.82
2018-10-04T12:34:34.876Z,15.81
2018-10-04T12:37:03.212Z,15.93
2018-10-04T12:39:31.553Z,15.78
2018-10-04T12:41:59.922Z,15.87
2018-10-04T12:44:28.258Z,15.81
2018-10-04T12:46:56.626Z,15.89
2018-10-04T12:49:24.956Z,16.06
2018-10-04T12:51:53.291Z,15.92
2018-10-04T12:54:21.660Z,15.95
2018-10-04T12:56:50.037Z,15.87
2018-10-04T12:59:18.371Z,15.97
2018-10-04T13:01:46.721Z,15.83
2018-10-04T13:04:15.077Z,15.77
2018-10-04T13:06:43.523Z,15.93
2018-10-04T13:09:11.832Z,15.76
2018-10-04T13:11:40.145Z,15.73
2018-10-04T13:14:08.661Z,15.83
2018-10-04T13:16:36.971Z,15.96
2018-10-04T13:19:05.301Z,15.99
2018-10-04T13:21:33.761Z,15.94
2018-10-04T13:24:02.005Z,15.90
2018-10-04T13:26:30.325Z,16.00
2018-10-04T13:28:58.668Z,16.08
2018-10-04T13:31:27.016Z,16.02
2018-10-04T13:33:55.355Z,15.92
2018-10-04T13:36:23.709Z,16.02
2018-10-04T13:38:52.041Z,16.00
2018-10-04T13:41:20.357Z,15.90
2018-10-04T13:43:48.676Z,16.16
2018-10-04T13:46:17.063Z,16.20
2018-10-04T13:48:45.392Z,16.27
2018-10-04T13:51:13.798Z,16.35
2018-10-04T13:53:42.139Z,16.16
2018-10-04T13:56:10.454Z,16.12
2018-10-04T13:58:38.783Z,15.99
2018-10-04T14:01:07.257Z,16.22
2018-10-04T14:03:35.602Z,16.24
2018-10-04T14:06:04.049Z,16.25
2018-10-04T14:08:32.327Z,16.22
2018-10-04T14:11:00.672Z,16.17
2018-10-04T14:13:29.021Z,16.21
2018-10-04T14:15:57.384Z,16.09
2018-10-04T14:18:25.756Z,16.11
2018-10-04T14:20:54.092Z,16.15
2018-10-04T14:23:22.464Z,16.19
2018-10-04T14:25:50.813Z,16.08
2018-10-04T14:28:19.159Z,16.09
2018-10-04T14:30:47.502Z,15.98
2018-10-04T14:33:15.849Z,15.94
2018-10-04T14:35:44.192Z,15.88
2018-10-04T14:38:12.552Z,15.91
2018-10-04T14:40:40.893Z,15.88
2018-10-04T14:43:09.220Z,15.81
2018-10-04T14:45:37.599Z,15.77
2018-10-04T14:48:05.976Z,15.65
2018-10-04T14:50:34.337Z,15.73
2018-10-04T14:53:02.689Z,15.80
2018-10-04T14:55:31.006Z,15.79
2018-10-04T14:57:59.347Z,15.78
2018-10-04T15:00:27.669Z,15.78
2018-10-04T15:02:56.029Z,15.88
2018-10-04T15:05:24.397Z,15.77
2018-10-04T15:07:52.743Z,15.75
2018-10-04T15:10:21.085Z,15.67
2018-10-04T15:12:49.430Z,15.64
2018-10-04T15:15:17.781Z,15.61
2018-10-04T15:17:46.128Z,15.61
2018-10-04T15:20:14.540Z,15.62
2018-10-04T15:22:42.904Z,15.60
2018-10-04T15:25:11.253Z,15.55
2018-10-04T15:27:39.589Z,15.50
2018-10-04T15:30:08.737Z,15.49
2018-10-04T15:32:37.208Z,15.43
2018-10-04T15:35:05.763Z,15.41
2018-10-04T15:37:34.132Z,15.40
2018-10-04T15:40:02.453Z,15.34
2018-10-04T15:42:30.782Z,15.40
2018-10-04T15:44:59.098Z,15.40
2018-10-04T15:47:27.424Z,15.36
2018-10-04T15:49:55.754Z,15.33
2018-10-04T15:52:24.083Z,15.27
2018-10-04T15:54:52.428Z,15.26
2018-10-04T15:57:20.741Z,15.24
2018-10-04T15:59:49.081Z,15.09
2018-10-04T16:02:17.408Z,15.13
2018-10-04T16:04:45.732Z,15.05
2018-10-04T16:07:14.065Z,15.08
2018-10-04T16:09:42.396Z,15.02
2018-10-04T16:13:35.353Z,14.95
2018-10-04T16:16:03.716Z,14.92
2018-10-04T16:18:32.037Z,14.92
2018-10-04T16:21:00.392Z,14.88
2018-10-04T16:23:28.718Z,14.84
2018-10-04T16:25:57.057Z,14.84
2018-10-04T16:28:25.417Z,14.77
2018-10-04T16:30:53.793Z,14.74
2018-10-04T16:33:22.149Z,14.69
2018-10-04T16:35:50.482Z,14.64
2018-10-04T16:38:18.846Z,14.58
2018-10-04T16:40:47.290Z,14.54
2018-10-04T16:43:15.640Z,14.46
2018-10-04T16:45:44.049Z,14.42
2018-10-04T16:48:12.398Z,14.39
2018-10-04T16:50:40.742Z,14.37
2018-10-04T16:53:09.105Z,14.29
2018-10-04T16:55:37.428Z,14.18
2018-10-04T16:58:06.049Z,14.16
2018-10-04T17:07:34.425Z,13.92
2018-10-04T17:10:02.773Z,13.90
2018-10-04T17:12:31.129Z,13.88
2018-10-04T17:14:59.539Z,13.85
2018-10-04T17:17:27.868Z,13.76
2018-10-04T17:19:56.211Z,13.62
2018-10-04T17:22:24.609Z,13.68
2018-10-04T17:24:52.924Z,13.68
2018-10-04T17:27:21.268Z,13.64
2018-10-04T17:29:49.617Z,13.55
2018-10-04T17:32:17.957Z,13.55
2018-10-04T17:34:46.344Z,13.50
2018-10-04T17:37:14.660Z,13.45
2018-10-04T17:39:43.024Z,13.40
2018-10-04T17:42:11.376Z,13.37
2018-10-04T17:44:39.718Z,13.35
2018-10-04T17:47:08.066Z,13.29
2018-10-04T17:49:36.407Z,13.31
2018-10-04T17:52:04.752Z,13.30
2018-10-04T17:54:33.450Z,13.20
2018-10-04T17:57:02.434Z,13.17
2018-10-04T17:59:30.748Z,13.17
2018-10-04T18:01:59.080Z,13.14
2018-10-04T18:04:27.553Z,13.09
2018-10-04T18:06:55.927Z,13.13
2018-10-04T18:09:24.288Z,13.03
2018-10-04T18:11:52.626Z,13.07
2018-10-04T18:14:20.945Z,13.06
2018-10-04T18:16:49.280Z,13.03
2018-10-04T18:19:17.607Z,13.05
2018-10-04T18:21:45.968Z,13.09
2018-10-04T18:24:14.288Z,13.08
2018-10-04T18:26:43.231Z,13.07
2018-10-04T18:29:11.586Z,13.08
2018-10-04T18:31:39.937Z,13.06
2018-10-04T18:34:08.449Z,13.08
2018-10-04T18:36:37.104Z,13.14
2018-10-04T18:39:07.441Z,13.12
2018-10-04T18:41:35.789Z,13.17
2018-10-04T18:44:04.137Z,13.16
2018-10-04T18:46:32.470Z,13.21
2018-10-04T18:49:00.786Z,13.24
2018-10-04T18:51:29.123Z,13.26
2018-10-04T18:53:57.444Z,13.30
2018-10-04T18:56:25.788Z,13.32
2018-10-04T18:58:54.146Z,13.33
2018-10-04T19:01:22.670Z,13.37
2018-10-04T19:03:50.991Z,13.36
2018-10-04T19:06:19.338Z,13.38
2018-10-04T19:08:47.653Z,13.40
2018-10-04T19:11:16.124Z,13.41
2018-10-04T19:13:44.442Z,13.45
2018-10-04T19:16:12.762Z,13.48
2018-10-04T19:18:41.104Z,13.46
2018-10-04T19:21:09.448Z,13.50
2018-10-04T19:23:37.787Z,13.52
2018-10-04T19:26:06.122Z,13.54
2018-10-04T19:28:34.447Z,13.57
2018-10-04T19:31:02.777Z,13.56
2018-10-04T19:33:31.113Z,13.59
2018-10-04T19:35:59.460Z,13.61
2018-10-04T19:38:27.798Z,13.62
2018-10-04T19:40:56.140Z,13.63
2018-10-04T19:43:24.457Z,13.63
2018-10-04T19:45:52.804Z,13.65
2018-10-04T19:48:21.169Z,13.67
2018-10-04T19:50:49.680Z,13.65
2018-10-04T19:53:17.998Z,13.64
2018-10-04T19:55:46.374Z,13.68
2018-10-04T19:58:14.820Z,13.68
2018-10-04T20:00:43.173Z,13.72
2018-10-04T20:03:11.572Z,13.70
2018-10-04T20:05:39.998Z,13.71
2018-10-04T20:08:08.320Z,13.73
2018-10-04T20:10:36.681Z,13.73
2018-10-04T20:13:05.070Z,13.72
2018-10-04T20:15:33.421Z,13.72
2018-10-04T20:18:01.809Z,13.74
2018-10-04T20:20:30.156Z,13.75
2018-10-04T20:22:58.582Z,13.77
2018-10-04T20:25:26.925Z,13.78
2018-10-04T20:27:55.271Z,13.73
2018-10-04T20:30:23.644Z,13.75
2018-10-04T20:32:51.976Z,13.78
2018-10-04T20:35:20.323Z,13.73
2018-10-04T20:37:48.663Z,13.76
2018-10-04T20:40:17.465Z,13.77
2018-10-04T20:42:45.806Z,13.73
2018-10-04T20:45:14.610Z,13.76
2018-10-04T20:47:44.372Z,13.73
2018-10-04T20:50:13.008Z,13.73
2018-10-04T20:52:41.627Z,13.75
2018-10-04T20:55:10.082Z,13.77
2018-10-04T20:57:38.491Z,13.77
2018-10-04T21:00:06.893Z,13.74
2018-10-04T21:02:35.250Z,13.71
2018-10-04T21:05:03.725Z,13.74
2018-10-04T21:07:32.103Z,13.78
2018-10-04T21:10:01.283Z,13.78
2018-10-04T21:12:30.062Z,13.79
2018-10-04T21:14:58.399Z,13.80
2018-10-04T21:17:26.866Z,13.80
2018-10-04T21:19:55.194Z,13.80
2018-10-04T21:22:23.589Z,13.80
2018-10-04T21:24:51.908Z,13.78
2018-10-04T21:27:20.266Z,13.81
2018-10-04T21:29:48.609Z,13.80
2018-10-04T21:32:16.974Z,13.78
2018-10-04T21:34:45.316Z,13.79
2018-10-04T21:37:13.748Z,13.78
2018-10-04T21:39:42.070Z,13.78
2018-10-04T21:42:10.501Z,13.80
2018-10-04T21:44:38.829Z,13.77
2018-10-04T21:47:07.370Z,13.79
2018-10-04T21:49:35.721Z,13.80
2018-10-04T21:52:04.067Z,13.78
2018-10-04T21:54:32.406Z,13.78
2018-10-04T21:57:01.631Z,13.77
2018-10-04T21:59:30.288Z,13.77
2018-10-04T22:01:58.634Z,13.77
2018-10-04T22:04:26.984Z,13.75
2018-10-04T22:06:56.347Z,13.75
2018-10-04T22:09:24.700Z,13.74
2018-10-04T22:11:53.043Z,13.76
2018-10-04T22:14:21.940Z,13.73
2018-10-04T22:16:50.348Z,13.74
2018-10-04T22:19:18.721Z,13.74
2018-10-04T22:21:47.235Z,13.68
2018-10-04T22:24:15.590Z,13.73
2018-10-04T22:26:44.464Z,13.75
2018-10-04T22:29:12.825Z,13.72
2018-10-04T22:31:41.270Z,13.75
2018-10-04T22:34:09.751Z,13.74
2018-10-04T22:36:38.151Z,13.70
2018-10-04T22:39:06.637Z,13.67
2018-10-04T22:41:35.006Z,13.67
2018-10-04T22:44:03.409Z,13.70
2018-10-04T22:46:31.786Z,13.68
2018-10-04T22:49:00.141Z,13.67
2018-10-04T22:51:28.461Z,13.63
2018-10-04T22:53:56.806Z,13.43
2018-10-04T22:56:25.184Z,13.39
2018-10-04T22:58:53.511Z,13.41
2018-10-04T23:01:21.976Z,13.46
2018-10-04T23:03:50.328Z,13.42
2018-10-04T23:06:18.705Z,13.36
2018-10-04T23:08:47.083Z,13.34
2018-10-04T23:11:16.251Z,13.29
2018-10-04T23:13:44.605Z,13.27
2018-10-04T23:16:12.952Z,13.06
2018-10-04T23:18:41.327Z,12.91
2018-10-04T23:21:09.693Z,12.99
2018-10-04T23:23:38.025Z,12.96
2018-10-04T23:26:06.391Z,12.84
2018-10-04T23:28:35.484Z,12.88
2018-10-04T23:31:04.703Z,12.83
2018-10-04T23:33:33.104Z,12.77
2018-10-04T23:36:01.549Z,12.75
2018-10-04T23:38:29.892Z,12.63
2018-10-04T23:40:58.238Z,12.61
2018-10-04T23:43:26.581Z,12.53
2018-10-04T23:45:54.959Z,12.58
2018-10-04T23:48:23.311Z,12.59
2018-10-04T23:50:51.736Z,12.59
2018-10-04T23:53:20.254Z,12.52
2018-10-04T23:55:48.616Z,12.54
2018-10-04T23:58:16.989Z,12.52
